This is the latest recevied packets stored in our database for station/object DB0LER. If no packets are shown the sender has not sent any packets the latest 24 hours.

If you compare the raw packets with similar data from other websites it may differ (especially the path), the reason is that we are not collecting packets from the same APRS-IS servers. Each APRS-IS server performes duplicate filtering, and which packet that is considered to be a duplicate may differ depending on which APRS-IS server you receive your data from.

1618667654: DB0LER>APRX29,WIDE2-2,qAS,DB0PDF-10:T#039,158.999996185,158,372,,, Testing

1618668322: DB0LER>APRX29,WIDE2-2,qAO,DB0IT:T#013,162.999992371,162,367,,, Testing

1618668853: DB0LER>APRX29,WIDE2-2,qAO,DB0IT::DB0LER :EQNS.0,0.1,0,0,0.1,0,0,0.1,0

1618668972: DB0LER>APRX29,WIDE2-2,qAO,DB0IT:T#100,162.000007629,162,380,,, Testing

1618668977: DB0LER>APRX29,WIDE2-2,qAS,DB0PDF-10:!5313.29N/00726.95E#APRS-Digi Leer

1618669015: DB0LER>APRX29,DB0PDF-10*,WIDE2-1,qAS,DB0OL-10:T#100,162.000007629,162,380,,, Testing

1618669016: DB0LER>APRX29,DB0PDF-10*,WIDE2-1,qAS,DB0OL-10:!5313.29N/00726.95E#APRS-Digi Leer

1618669292: DB0LER>APRX29,WIDE2-2,qAS,DB0PDF-10:T#091,161.000003815,161,379,,, Testing

1618669330: DB0LER>APRX29,DB0PDF-10*,WIDE2-1,qAR,DB0BI-10:T#091,161.000003815,161,379,,, Testing

1618669592: DB0LER>APRX29,WIDE2-2,qAS,DB0PDF-10:T#010,163.999996185,163,377,,, Testing

1618670222: DB0LER>APRX29,WIDE2-2,qAS,DB0PDF-10:T#047,163.999996185,163,375,,, Testing

1618670637: DB0LER>APRX29,WIDE2-2,qAS,DB0PDF-10:!5313.29N/00726.95E#APRS-Digi Leer

1618670911: DB0LER>APRX29,WIDE2-2,qAO,DB0IT:T#085,165.0,165,375,,, Testing

1618670988: DB0LER>APRX29,WIDE2-2,qAS,DB0PDF-10::DB0LER :UNIT.C,C,%

1618670989: DB0LER>APRX29,DB0PBG-5*,WIDE2-1,qAS,DB0PDF-10::DB0LER :PARM.Temp1,Temp2,Feuchte

1618671212: DB0LER>APRX29,WIDE2-2,qAS,DB0PDF-10:T#041,163.999996185,163,372,,, Testing

1618671548: DB0LER>APRX29,WIDE2-2,qAO,DB0IT:T#010,166.000003815,166,375,,, Testing

1618671748: DB0LER>APRX29,WIDE2-2,qAO,DB0IT::DB0LER :EQNS.0,0.1,0,0,0.1,0,0,0.1,0

1618671877: DB0LER>APRX29,WIDE2-2,qAS,DB0PDF-10:T#041,165.0,165,374,,, Testing

1618671932: DB0LER>APRX29,DB0PDF-10*,WIDE2-1,qAR,DB0ROD:T#041,165.0,165,374,,, Testing

1618672177: DB0LER>APRX29,WIDE2-2,qAS,DB0PDF-10:T#016,161.000003815,161,365,,, Testing

1618672407: DB0LER>APRX29,WIDE2-2,qAS,DB0PDF-10:!5313.29N/00726.95E#APRS-Digi Leer

1618672477: DB0LER>APRX29,WIDE2-2,qAS,DB0PDF-10:T#051,160.0,160,357,,, Testing

1618672832: DB0LER>APRX29,WIDE2-2,qAO,DB0IT:T#050,158.000001907,158,357,,, Testing

1618673153: DB0LER>APRX29,WIDE2-2,qAS,DB0PDF-10:T#087,158.000001907,158,345,,, Testing

Initial position
Current position
Ruler